createdAt,value
2023-03-06T00:01:55.198Z,5.34
2023-03-06T00:04:22.843Z,8.24
2023-03-06T00:06:50.607Z,7.58
2023-03-06T00:09:18.278Z,6.12
2023-03-06T00:11:45.929Z,5.03
2023-03-06T00:14:13.694Z,4.27
2023-03-06T00:16:41.477Z,3.73
2023-03-06T00:19:09.224Z,3.33
2023-03-06T00:21:36.887Z,3.69
2023-03-06T00:24:04.657Z,6.83
2023-03-06T00:26:34.055Z,8.36
2023-03-06T00:29:01.710Z,6.99
2023-03-06T00:31:29.593Z,5.58
2023-03-06T00:33:57.347Z,4.59
2023-03-06T00:36:25.105Z,3.86
2023-03-06T00:38:52.870Z,3.47
2023-03-06T00:41:20.528Z,5.37
2023-03-06T00:43:48.297Z,8.30
2023-03-06T00:46:16.057Z,8.34
2023-03-06T00:48:43.716Z,6.88
2023-03-06T00:51:13.886Z,5.56
2023-03-06T00:53:41.822Z,4.53
2023-03-06T00:56:09.571Z,3.81
2023-03-06T00:58:37.948Z,3.30
2023-03-06T01:01:05.633Z,4.72
2023-03-06T01:03:33.375Z,7.71
2023-03-06T01:06:01.036Z,7.88
2023-03-06T01:08:28.898Z,6.26
2023-03-06T01:10:56.661Z,5.06
2023-03-06T01:13:24.325Z,4.13
2023-03-06T01:15:51.984Z,3.47
2023-03-06T01:18:19.747Z,3.67
2023-03-06T01:20:47.614Z,6.59
2023-03-06T01:23:15.275Z,8.22
2023-03-06T01:25:42.936Z,7.08
2023-03-06T01:28:10.699Z,5.61
2023-03-06T01:30:38.363Z,4.64
2023-03-06T01:33:06.023Z,3.92
2023-03-06T01:35:33.712Z,3.41
2023-03-06T01:38:01.552Z,3.25
2023-03-06T01:40:29.319Z,5.85
2023-03-06T01:42:56.980Z,8.28
2023-03-06T01:45:24.645Z,7.31
2023-03-06T01:47:52.304Z,5.80
2023-03-06T01:50:19.963Z,4.75
2023-03-06T01:52:47.628Z,4.01
2023-03-06T01:55:15.391Z,3.46
2023-03-06T01:57:43.163Z,3.02
2023-03-06T02:03:13.930Z,6.99
2023-03-06T02:05:41.783Z,8.50
2023-03-06T02:08:09.438Z,7.31
2023-03-06T02:10:37.069Z,5.82
2023-03-06T02:13:04.763Z,4.65
2023-03-06T02:15:32.428Z,3.91
2023-03-06T02:18:00.193Z,3.38
2023-03-06T02:20:27.952Z,3.48
2023-03-06T02:22:55.613Z,6.31
2023-03-06T02:25:23.276Z,8.35
2023-03-06T02:27:51.043Z,7.58
2023-03-06T02:30:18.706Z,5.93
2023-03-06T02:32:46.567Z,4.72
2023-03-06T02:35:14.229Z,3.92
2023-03-06T02:37:41.891Z,3.71
2023-03-06T02:40:09.551Z,6.33
2023-03-06T02:42:37.213Z,8.38
2023-03-06T02:45:05.185Z,7.31
2023-03-06T02:47:32.944Z,5.68
2023-03-06T02:50:00.609Z,4.53
2023-03-06T02:52:28.364Z,3.75
2023-03-06T02:54:56.029Z,3.16
2023-03-06T02:57:23.896Z,4.43
2023-03-06T02:59:51.673Z,7.37
2023-03-06T03:02:19.422Z,8.44
2023-03-06T03:04:47.172Z,6.91
2023-03-06T03:07:15.064Z,5.46
2023-03-06T03:09:42.824Z,4.46
2023-03-06T03:12:10.594Z,3.75
2023-03-06T03:14:38.341Z,3.23
2023-03-06T03:17:06.006Z,4.50
2023-03-06T03:19:33.769Z,7.51
2023-03-06T03:22:01.437Z,8.33
2023-03-06T03:24:29.430Z,6.82
2023-03-06T03:26:57.176Z,5.36
2023-03-06T03:29:25.148Z,4.36
2023-03-06T03:31:53.109Z,3.62
2023-03-06T03:34:20.974Z,3.07
2023-03-06T03:36:48.639Z,2.70
2023-03-06T03:39:16.400Z,4.41
2023-03-06T03:41:44.058Z,7.59
2023-03-06T03:44:11.839Z,8.37
2023-03-06T03:46:39.648Z,6.84
2023-03-06T03:49:07.454Z,5.45
2023-03-06T03:51:35.216Z,4.48
2023-03-06T03:54:02.983Z,3.80
2023-03-06T03:56:30.743Z,3.53
2023-03-06T03:58:58.407Z,5.87
2023-03-06T04:01:26.166Z,8.36
2023-03-06T04:03:53.938Z,7.81
2023-03-06T04:06:21.592Z,6.20
2023-03-06T04:08:49.356Z,5.01
2023-03-06T04:11:17.022Z,4.14
2023-03-06T04:13:44.677Z,3.52
2023-03-06T04:16:12.388Z,3.05
2023-03-06T04:18:40.205Z,2.80
2023-03-06T04:21:07.970Z,4.86
2023-03-06T04:23:35.733Z,7.90
2023-03-06T04:26:03.401Z,8.70
2023-03-06T04:28:31.158Z,7.16
2023-03-06T04:30:58.941Z,5.67
2023-03-06T04:33:26.796Z,4.65
2023-03-06T04:35:54.626Z,3.92
2023-03-06T04:38:22.425Z,3.36
2023-03-06T04:40:50.108Z,2.90
2023-03-06T04:43:18.058Z,2.51
2023-03-06T04:45:45.853Z,2.23
2023-03-06T04:48:13.590Z,3.69
2023-03-06T04:50:41.347Z,6.88
2023-03-06T04:53:09.229Z,8.13
2023-03-06T04:55:36.978Z,6.89
2023-03-06T04:58:04.639Z,5.50
2023-03-06T05:00:32.301Z,4.53
2023-03-06T05:03:00.096Z,3.81
2023-03-06T05:05:28.034Z,3.27
2023-03-06T05:07:55.793Z,2.87
2023-03-06T05:10:23.556Z,4.29
2023-03-06T05:12:51.206Z,7.28
2023-03-06T05:15:18.880Z,8.34
2023-03-06T05:17:47.773Z,6.98
2023-03-06T05:20:15.540Z,5.60
2023-03-06T05:22:43.238Z,4.69
2023-03-06T05:25:11.063Z,4.07
2023-03-06T05:27:38.821Z,3.59
2023-03-06T05:30:06.490Z,3.16
2023-03-06T05:32:35.672Z,2.81
2023-03-06T05:35:03.859Z,3.01
2023-03-06T05:37:31.723Z,5.85
2023-03-06T05:39:59.432Z,8.34
2023-03-06T05:42:28.841Z,7.74
2023-03-06T05:44:56.670Z,6.13
2023-03-06T05:47:24.420Z,4.96
2023-03-06T05:49:52.184Z,4.15
2023-03-06T05:52:19.949Z,3.60
2023-03-06T05:54:47.815Z,3.17
2023-03-06T05:57:15.433Z,2.84
2023-03-06T05:59:43.305Z,2.63
2023-03-06T06:02:11.149Z,4.71
2023-03-06T06:04:38.868Z,8.04
2023-03-06T06:07:06.528Z,8.19
2023-03-06T06:09:34.291Z,6.65
2023-03-06T06:12:01.962Z,5.41
2023-03-06T06:14:29.717Z,4.55
2023-03-06T06:16:57.483Z,3.95
2023-03-06T06:19:25.145Z,3.51
2023-03-06T06:21:53.014Z,3.16
2023-03-06T06:24:20.802Z,3.70
2023-03-06T06:26:48.541Z,7.24
2023-03-06T06:29:16.200Z,9.07
2023-03-06T06:31:43.993Z,7.74
2023-03-06T06:34:11.726Z,6.32
2023-03-06T06:36:39.387Z,5.33
2023-03-06T06:39:07.158Z,4.64
2023-03-06T06:44:22.651Z,3.74
2023-03-06T06:47:21.173Z,3.43
2023-03-06T06:49:39.688Z,4.26
2023-03-06T06:52:07.455Z,7.55
2023-03-06T06:54:35.213Z,9.00
2023-03-06T06:57:02.888Z,7.77
2023-03-06T06:59:30.633Z,6.50
2023-03-06T07:01:58.396Z,5.63
2023-03-06T07:04:26.062Z,5.07
2023-03-06T07:06:53.721Z,4.66
2023-03-06T07:09:22.609Z,4.33
2023-03-06T07:11:50.404Z,4.02
2023-03-06T07:14:18.145Z,4.43
2023-03-06T07:16:45.818Z,7.43
2023-03-06T07:19:13.565Z,9.15
2023-03-06T07:21:41.328Z,8.04
2023-03-06T07:24:09.092Z,6.80
2023-03-06T07:26:36.963Z,5.95
2023-03-06T07:29:04.722Z,5.39
2023-03-06T07:31:32.454Z,4.96
2023-03-06T07:34:01.876Z,4.57
2023-03-06T07:36:30.882Z,4.21
2023-03-06T07:38:58.546Z,4.68
2023-03-06T07:41:26.206Z,7.86
2023-03-06T07:43:53.874Z,9.31
2023-03-06T07:46:21.580Z,8.07
2023-03-06T07:48:49.302Z,6.85
2023-03-06T07:51:17.071Z,5.96
2023-03-06T07:53:45.035Z,5.33
2023-03-06T07:56:12.693Z,4.86
2023-03-06T07:58:40.457Z,4.48
2023-03-06T08:01:08.219Z,4.18
2023-03-06T08:03:35.985Z,4.49
2023-03-06T08:06:03.856Z,7.53
2023-03-06T08:08:31.613Z,9.68
2023-03-06T08:10:59.277Z,8.72
2023-03-06T08:13:26.934Z,7.32
2023-03-06T08:15:54.910Z,6.36
2023-03-06T08:18:22.564Z,5.67
2023-03-06T08:20:50.242Z,5.16
2023-03-06T08:23:18.193Z,4.74
2023-03-06T08:25:45.955Z,4.38
2023-03-06T08:28:13.617Z,4.08
2023-03-06T08:30:41.688Z,4.83
2023-03-06T08:33:09.350Z,8.13
2023-03-06T08:35:37.074Z,9.35
2023-03-06T08:38:04.880Z,8.02
2023-03-06T08:40:32.640Z,6.74
2023-03-06T08:43:00.408Z,5.85
2023-03-06T08:45:28.088Z,5.19
2023-03-06T08:47:55.829Z,4.72
2023-03-06T08:50:23.601Z,4.34
2023-03-06T08:52:51.358Z,4.65
2023-03-06T08:55:19.017Z,7.57
2023-03-06T08:57:46.782Z,9.62
2023-03-06T09:00:14.598Z,8.58
2023-03-06T09:02:42.459Z,7.30
2023-03-06T09:05:10.279Z,6.40
2023-03-06T09:07:38.144Z,5.76
2023-03-06T09:10:05.908Z,5.39
2023-03-06T09:12:47.255Z,7.21
2023-03-06T09:15:17.103Z,9.58
2023-03-06T09:17:45.052Z,8.70
2023-03-06T09:20:12.954Z,7.55
2023-03-06T09:22:42.654Z,6.68
2023-03-06T09:25:11.232Z,6.02
2023-03-06T09:27:38.999Z,5.54
2023-03-06T09:30:06.663Z,6.11
2023-03-06T09:32:34.485Z,9.07
2023-03-06T09:35:02.197Z,9.66
2023-03-06T09:37:29.853Z,8.26
2023-03-06T09:39:58.035Z,7.13
2023-03-06T09:42:25.686Z,6.36
2023-03-06T09:44:53.517Z,5.84
2023-03-06T09:47:21.314Z,5.47
2023-03-06T09:49:48.982Z,6.56
2023-03-06T09:52:17.777Z,8.40
2023-03-06T09:54:46.342Z,7.63
2023-03-06T09:57:14.127Z,6.79
2023-03-06T09:59:41.874Z,6.19
2023-03-06T10:02:09.801Z,5.69
2023-03-06T10:04:37.632Z,5.43
2023-03-06T10:07:05.366Z,5.25
2023-03-06T10:09:33.035Z,5.17
2023-03-06T10:12:00.701Z,5.78
2023-03-06T10:14:28.685Z,8.35
2023-03-06T10:16:57.248Z,8.30
2023-03-06T10:19:25.008Z,7.43
2023-03-06T10:21:52.782Z,6.76
2023-03-06T10:24:20.612Z,6.30
2023-03-06T10:26:48.422Z,6.05
2023-03-06T10:29:16.275Z,5.88
2023-03-06T10:31:44.961Z,5.79
2023-03-06T10:34:12.665Z,5.75
2023-03-06T10:36:40.489Z,5.75
2023-03-06T10:39:08.249Z,5.79
2023-03-06T10:41:36.856Z,5.86
2023-03-06T10:44:04.622Z,5.88
2023-03-06T10:46:32.422Z,5.86
2023-03-06T10:49:00.167Z,5.85
2023-03-06T10:51:27.891Z,5.85
2023-03-06T10:53:55.654Z,5.85
2023-03-06T10:56:23.418Z,5.82
2023-03-06T10:58:51.082Z,5.78
2023-03-06T11:01:18.886Z,5.75
2023-03-06T11:03:46.711Z,5.76
2023-03-06T11:06:14.576Z,5.81
2023-03-06T11:08:42.246Z,5.90
2023-03-06T11:11:09.890Z,6.04
2023-03-06T11:13:37.534Z,6.15
2023-03-06T11:16:05.358Z,6.23
2023-03-06T11:18:35.442Z,6.27
2023-03-06T11:21:03.494Z,6.32
2023-03-06T11:23:31.173Z,6.43
2023-03-06T11:25:58.938Z,6.52
2023-03-06T11:28:26.596Z,6.55
2023-03-06T11:30:54.260Z,6.52
2023-03-06T11:33:21.917Z,6.53
2023-03-06T11:35:49.538Z,6.60
2023-03-06T11:38:17.242Z,6.69
2023-03-06T11:40:44.902Z,6.72
2023-03-06T11:43:12.564Z,6.71
2023-03-06T11:45:40.226Z,6.65
2023-03-06T11:48:07.887Z,6.55
2023-03-06T11:50:35.531Z,6.46
2023-03-06T11:53:03.229Z,6.39
2023-03-06T11:55:30.973Z,6.36
2023-03-06T11:57:58.739Z,6.34
2023-03-06T12:00:26.401Z,6.36
2023-03-06T12:02:54.064Z,6.36
2023-03-06T12:05:22.809Z,6.33
2023-03-06T12:07:50.617Z,6.28
2023-03-06T12:10:18.388Z,6.22
2023-03-06T12:12:46.145Z,6.17
2023-03-06T12:15:13.809Z,6.13
2023-03-06T12:17:41.465Z,6.15
2023-03-06T12:20:10.560Z,6.24
2023-03-06T12:22:38.237Z,6.30
2023-03-06T12:25:05.995Z,6.33
2023-03-06T12:27:33.751Z,6.35
2023-03-06T12:30:01.761Z,6.35
2023-03-06T12:32:29.917Z,6.36
2023-03-06T12:34:57.554Z,6.41
2023-03-06T12:37:25.320Z,6.47
2023-03-06T12:39:52.981Z,6.49
2023-03-06T12:42:23.574Z,6.47
2023-03-06T12:44:51.498Z,6.47
2023-03-06T12:47:19.782Z,6.44
2023-03-06T12:49:48.208Z,6.43
2023-03-06T12:52:18.708Z,6.41
2023-03-06T12:54:49.193Z,6.39
2023-03-06T12:57:16.954Z,6.38
2023-03-06T12:59:44.749Z,6.36
2023-03-06T13:02:12.499Z,6.34
2023-03-06T13:04:40.253Z,6.32
2023-03-06T13:07:08.012Z,6.31
2023-03-06T13:09:35.631Z,6.29
2023-03-06T13:12:03.335Z,6.30
2023-03-06T13:14:31.032Z,6.30
2023-03-06T13:16:58.832Z,6.32
2023-03-06T13:19:26.644Z,6.31
2023-03-06T13:21:54.400Z,6.31
2023-03-06T13:24:22.484Z,6.30
2023-03-06T13:26:50.231Z,6.30
2023-03-06T13:29:17.885Z,6.30
2023-03-06T13:31:45.585Z,6.30
2023-03-06T13:34:13.317Z,6.28
2023-03-06T13:36:40.986Z,6.26
2023-03-06T13:39:08.840Z,6.25
2023-03-06T13:41:37.824Z,6.23
2023-03-06T13:44:05.612Z,6.21
2023-03-06T13:46:35.388Z,6.20
2023-03-06T13:49:03.277Z,6.18
2023-03-06T13:51:30.935Z,6.18
2023-03-06T13:53:58.595Z,6.17
2023-03-06T13:56:26.263Z,6.14
2023-03-06T13:58:54.026Z,6.13
2023-03-06T14:01:21.725Z,6.13
2023-03-06T14:03:49.630Z,6.12
2023-03-06T14:06:17.310Z,6.11
2023-03-06T14:08:44.971Z,6.10
2023-03-06T14:11:12.631Z,6.10
2023-03-06T14:13:47.105Z,6.08
2023-03-06T14:16:15.522Z,6.08
2023-03-06T14:18:43.295Z,6.07
2023-03-06T14:21:13.554Z,6.07
2023-03-06T14:23:45.273Z,6.07
2023-03-06T14:26:15.912Z,6.07
2023-03-06T14:28:43.874Z,6.07
2023-03-06T14:31:11.554Z,6.08
2023-03-06T14:33:39.209Z,6.09
2023-03-06T14:36:10.139Z,6.09
2023-03-06T14:38:37.806Z,6.11
2023-03-06T14:41:05.463Z,6.10
2023-03-06T14:43:33.332Z,6.11
2023-03-06T14:46:01.092Z,6.11
2023-03-06T14:48:28.859Z,6.11
2023-03-06T14:50:56.659Z,6.11
2023-03-06T14:53:24.491Z,6.11
2023-03-06T14:55:53.388Z,6.09
2023-03-06T14:58:21.039Z,6.09
2023-03-06T15:00:49.735Z,6.08
2023-03-06T15:03:18.020Z,6.06
2023-03-06T15:05:45.778Z,6.04
2023-03-06T15:08:13.426Z,6.03
2023-03-06T15:10:43.455Z,6.02
2023-03-06T15:13:11.626Z,5.98
2023-03-06T15:15:39.379Z,5.93
2023-03-06T15:18:07.042Z,5.89
2023-03-06T15:20:34.807Z,5.84
2023-03-06T15:23:02.669Z,5.79
2023-03-06T15:25:30.460Z,5.73
2023-03-06T15:27:58.299Z,5.66
2023-03-06T15:30:26.070Z,5.58
2023-03-06T15:32:53.828Z,5.50
2023-03-06T15:35:21.520Z,5.41
2023-03-06T15:37:49.252Z,5.33
2023-03-06T15:40:16.883Z,5.23
2023-03-06T15:42:44.591Z,5.15
2023-03-06T15:45:12.245Z,5.08
2023-03-06T15:47:39.920Z,4.99
2023-03-06T15:50:07.564Z,4.89
2023-03-06T15:52:35.231Z,4.81
2023-03-06T15:55:03.002Z,4.76
2023-03-06T15:57:30.682Z,4.70
2023-03-06T15:59:58.421Z,4.65
2023-03-06T16:02:26.218Z,4.60
2023-03-06T16:04:54.073Z,4.56
2023-03-06T16:07:21.915Z,4.52
2023-03-06T16:09:49.690Z,4.46
2023-03-06T16:12:17.754Z,4.95
2023-03-06T16:14:45.510Z,8.05
2023-03-06T16:17:13.179Z,10.34
2023-03-06T16:19:40.832Z,9.64
2023-03-06T16:22:08.805Z,8.44
2023-03-06T16:24:37.383Z,7.65
2023-03-06T16:27:05.247Z,7.13
2023-03-06T16:29:33.013Z,6.74
2023-03-06T16:32:02.040Z,6.43
2023-03-06T16:34:29.973Z,6.15
2023-03-06T16:36:57.737Z,5.93
2023-03-06T16:39:25.506Z,5.73
2023-03-06T16:41:53.371Z,5.54
2023-03-06T16:44:21.132Z,5.33
2023-03-06T16:46:48.915Z,5.09
2023-03-06T16:49:17.091Z,5.36
2023-03-06T16:51:45.353Z,8.15
2023-03-06T16:54:13.114Z,10.78
2023-03-06T16:56:40.770Z,11.15
2023-03-06T16:59:08.534Z,9.69
2023-03-06T17:01:36.377Z,8.43
2023-03-06T17:04:04.168Z,7.63
2023-03-06T17:06:31.838Z,7.10
2023-03-06T17:09:00.330Z,6.71
2023-03-06T17:11:27.953Z,6.39
2023-03-06T17:13:55.635Z,6.75
2023-03-06T17:16:23.398Z,9.66
2023-03-06T17:18:51.168Z,11.46
2023-03-06T17:21:19.262Z,10.39
2023-03-06T17:23:47.097Z,9.09
2023-03-06T17:26:14.860Z,8.18
2023-03-06T17:28:42.626Z,7.54
2023-03-06T17:31:10.601Z,7.07
2023-03-06T17:33:38.256Z,6.67
2023-03-06T17:36:05.887Z,6.34
2023-03-06T17:38:33.576Z,6.70
2023-03-06T17:41:01.243Z,9.57
2023-03-06T17:43:29.006Z,11.38
2023-03-06T17:45:56.665Z,10.35
2023-03-06T17:48:24.326Z,9.08
2023-03-06T17:50:51.988Z,8.18
2023-03-06T17:53:19.756Z,7.56
2023-03-06T17:55:47.535Z,7.09
2023-03-06T17:58:15.152Z,6.67
2023-03-06T18:00:42.939Z,6.29
2023-03-06T18:03:10.609Z,6.89
2023-03-06T18:05:39.006Z,9.86
2023-03-06T18:08:08.482Z,11.22
2023-03-06T18:10:36.249Z,9.97
2023-03-06T18:13:04.424Z,8.69
2023-03-06T18:15:32.101Z,7.78
2023-03-06T18:17:59.848Z,7.10
2023-03-06T18:20:27.716Z,6.61
2023-03-06T18:22:55.477Z,6.23
2023-03-06T18:25:23.243Z,6.69
2023-03-06T18:27:50.903Z,9.71
2023-03-06T18:30:18.667Z,11.32
2023-03-06T18:32:46.379Z,10.18
2023-03-06T18:35:14.015Z,8.88
2023-03-06T18:37:41.653Z,7.97
2023-03-06T18:40:09.414Z,7.36
2023-03-06T18:42:37.186Z,6.90
2023-03-06T18:45:04.843Z,6.52
2023-03-06T18:47:33.940Z,6.17
2023-03-06T18:50:02.928Z,6.68
2023-03-06T18:52:30.594Z,9.71
2023-03-06T18:54:58.260Z,11.15
2023-03-06T18:57:26.039Z,9.97
2023-03-06T18:59:55.454Z,8.71
2023-03-06T19:02:23.184Z,7.80
2023-03-06T19:04:50.949Z,7.17
2023-03-06T19:07:18.613Z,6.69
2023-03-06T19:09:46.376Z,6.32
2023-03-06T19:12:14.148Z,6.72
2023-03-06T19:14:41.905Z,9.73
2023-03-06T19:17:09.567Z,11.08
2023-03-06T19:19:37.176Z,9.90
2023-03-06T19:22:04.897Z,8.70
2023-03-06T19:24:32.656Z,7.88
2023-03-06T19:27:00.427Z,7.30
2023-03-06T19:29:28.701Z,6.86
2023-03-06T19:31:57.524Z,6.47
2023-03-06T19:34:25.352Z,6.10
2023-03-06T19:36:53.331Z,5.78
2023-03-06T19:39:20.983Z,5.46
2023-03-06T19:41:48.849Z,5.83
2023-03-06T19:44:16.630Z,8.77
2023-03-06T19:46:44.378Z,10.56
2023-03-06T19:49:13.883Z,9.53
2023-03-06T19:51:41.655Z,8.21
2023-03-06T19:54:09.307Z,7.29
2023-03-06T19:56:37.073Z,6.69
2023-03-06T19:59:04.734Z,6.25
2023-03-06T20:01:34.448Z,5.91
2023-03-06T20:04:03.422Z,5.62
2023-03-06T20:06:31.615Z,5.36
2023-03-06T20:08:59.382Z,5.15
2023-03-06T20:11:27.152Z,4.96
2023-03-06T20:13:54.899Z,5.67
2023-03-06T20:16:22.659Z,8.84
2023-03-06T20:18:50.421Z,10.42
2023-03-06T20:21:18.082Z,9.28
2023-03-06T20:23:45.739Z,8.04
2023-03-06T20:26:13.716Z,7.20
2023-03-06T20:28:41.473Z,6.60
2023-03-06T20:31:09.253Z,6.13
2023-03-06T20:33:37.000Z,5.75
2023-03-06T20:36:04.683Z,5.43
2023-03-06T20:38:32.423Z,5.16
2023-03-06T20:41:00.105Z,5.77
2023-03-06T20:43:27.746Z,8.75
2023-03-06T20:45:55.410Z,10.21
2023-03-06T20:48:23.073Z,9.03
2023-03-06T20:50:50.735Z,7.79
2023-03-06T20:53:18.400Z,6.85
2023-03-06T20:55:48.486Z,6.24
2023-03-06T20:58:17.715Z,5.75
2023-03-06T21:00:45.378Z,5.35
2023-03-06T21:03:13.062Z,5.01
2023-03-06T21:05:40.817Z,4.74
2023-03-06T21:08:08.462Z,4.55
2023-03-06T21:10:36.331Z,5.96
2023-03-06T21:13:03.981Z,9.16
2023-03-06T21:15:31.757Z,10.58
2023-03-06T21:17:59.417Z,9.42
2023-03-06T21:20:27.183Z,7.98
2023-03-06T21:22:56.484Z,7.00
2023-03-06T21:25:24.247Z,6.31
2023-03-06T21:27:51.949Z,5.79
2023-03-06T21:30:19.674Z,5.38
2023-03-06T21:32:47.335Z,5.05
2023-03-06T21:35:15.100Z,4.77
2023-03-06T21:37:42.771Z,4.53
2023-03-06T21:40:10.525Z,4.32
2023-03-06T21:42:38.290Z,4.81
2023-03-06T21:45:05.992Z,8.03
2023-03-06T21:47:38.726Z,10.22
2023-03-06T21:50:06.603Z,9.23
2023-03-06T21:52:34.369Z,7.87
2023-03-06T21:55:02.126Z,6.91
2023-03-06T21:57:29.796Z,6.23
2023-03-06T21:59:57.558Z,5.71
2023-03-06T22:02:25.214Z,5.31
2023-03-06T22:04:53.596Z,4.99
2023-03-06T22:07:21.458Z,4.72
2023-03-06T22:09:49.223Z,5.45
2023-03-06T22:12:16.889Z,8.69
2023-03-06T22:14:44.651Z,10.25
2023-03-06T22:17:12.411Z,9.09
2023-03-06T22:19:40.072Z,7.76
2023-03-06T22:22:10.392Z,6.85
2023-03-06T22:24:38.471Z,6.21
2023-03-06T22:27:06.231Z,5.74
2023-03-06T22:29:33.891Z,5.37
2023-03-06T22:32:01.689Z,5.08
2023-03-06T22:34:29.624Z,4.80
2023-03-06T22:36:57.385Z,4.56
2023-03-06T22:39:25.149Z,5.10
2023-03-06T22:41:52.914Z,8.21
2023-03-06T22:44:20.680Z,9.72
2023-03-06T22:46:48.645Z,8.58
2023-03-06T22:49:17.228Z,7.37
2023-03-06T22:51:44.892Z,6.49
2023-03-06T22:54:12.651Z,5.86
2023-03-06T22:56:40.410Z,5.39
2023-03-06T22:59:08.025Z,4.99
2023-03-06T23:01:35.808Z,4.66
2023-03-06T23:04:03.789Z,4.37
2023-03-06T23:06:31.780Z,4.11
2023-03-06T23:08:59.752Z,3.90
2023-03-06T23:11:28.332Z,4.37
2023-03-06T23:13:55.996Z,7.46
2023-03-06T23:16:23.668Z,9.45
2023-03-06T23:18:51.423Z,8.50
2023-03-06T23:21:19.186Z,7.17
2023-03-06T23:23:46.952Z,6.19
2023-03-06T23:26:14.613Z,5.53
2023-03-06T23:28:42.274Z,5.08
2023-03-06T23:31:09.994Z,4.73
2023-03-06T23:33:39.028Z,4.45
2023-03-06T23:36:06.899Z,4.18
2023-03-06T23:38:34.558Z,3.94
2023-03-06T23:41:02.323Z,4.47
2023-03-06T23:43:30.087Z,7.52
2023-03-06T23:45:57.792Z,9.35
2023-03-06T23:48:25.616Z,8.26
2023-03-06T23:50:53.284Z,6.94
2023-03-06T23:53:21.041Z,5.98
2023-03-06T23:55:49.229Z,5.33
2023-03-06T23:58:17.020Z,4.84
